Elly Lane — WDF4879 — position and weather

sailwx.info

Track history (hours):
 
Tides and Currents Weather Stations Pressure Air Temp Water Temp Dewpoint Dewpoint Depression Visibility Wind Speed Wind Dir Waves Ship Positions

Elly Lane

Owner: Canal Barge Company, Inc., Belle Chasse, LA. More information available from US FCC via Universal Licensing System and Coast Guard Vessel Documentation Center.

Last reported at 2017-Nov-28 12:50 UTC. Time now 2017-Dec-11 04:16 UTC.
Position N 29°57' W 090°24'.
Warning: this ship's position is 12 days out of date.

Length 32 m; draft 3.2 m.

Type: Towing. MMSI: 367456810.

Date/timePositionNaut miles runAvg speedWind from/ knotsBaromVisibWave heightAir tempDewpointWater temp
2017-Nov-28 12:50N 29°57' W 090°24'2 5.5
2017-Nov-28 12:24N 29°56' W 090°21'10 3.6
2017-Nov-28 09:41N 29°57' W 090°10'5 1.0
2017-Nov-28 04:17N 29°58' W 090°16'2 6.9
2017-Nov-28 03:59N 29°57' W 090°18'4 7.2
2017-Nov-28 03:30N 29°56' W 090°22'2 3.0
2017-Nov-28 02:59N 29°57' W 090°23'  
2017-Nov-25 10:49N 29°57' W 090°10'3 2.8
2017-Nov-25 09:44N 29°57' W 090°13'4 2.2
2017-Nov-25 07:44N 29°57' W 090°18'0 0.6
2017-Nov-25 07:24N 29°57' W 090°19'2 5.4
2017-Nov-25 06:58N 29°56' W 090°21'2 4.5
2017-Nov-25 06:30N 29°57' W 090°23'0 0.0
2017-Nov-25 05:49N 29°57' W 090°23'0 0.0
2017-Nov-25 05:30N 29°57' W 090°23'0 0.0
2017-Nov-25 05:00N 29°57' W 090°23'0 0.0
2017-Nov-25 04:30N 29°57' W 090°23'0 0.2
2017-Nov-25 04:00N 29°57' W 090°23'  
Track history (hours):
 
Tides and Currents Weather Stations Pressure Air Temp Water Temp Dewpoint Dewpoint Depression Visibility Wind Speed Wind Dir Waves Ship Positions

Elly Lane

Owner: Canal Barge Company, Inc., Belle Chasse, LA. More information available from US FCC via Universal Licensing System and Coast Guard Vessel Documentation Center.

Last reported at 2017-Nov-28 12:50 UTC. Time now 2017-Dec-11 04:16 UTC.
Position N 29°57' W 090°24'.
Warning: this ship's position is 12 days out of date.

Length 32 m; draft 3.2 m.

Type: Towing. MMSI: 367456810.

Date/timePositionNaut miles runAvg speedWind from/ knotsBaromVisibWave heightAir tempDewpointWater temp
2017-Nov-28 12:50N 29°57' W 090°24'2 5.5
2017-Nov-28 12:24N 29°56' W 090°21'10 3.6
2017-Nov-28 09:41N 29°57' W 090°10'5 1.0
2017-Nov-28 04:17N 29°58' W 090°16'2 6.9
2017-Nov-28 03:59N 29°57' W 090°18'4 7.2
2017-Nov-28 03:30N 29°56' W 090°22'2 3.0
2017-Nov-28 02:59N 29°57' W 090°23'  
2017-Nov-25 10:49N 29°57' W 090°10'3 2.8
2017-Nov-25 09:44N 29°57' W 090°13'4 2.2
2017-Nov-25 07:44N 29°57' W 090°18'0 0.6
2017-Nov-25 07:24N 29°57' W 090°19'2 5.4
2017-Nov-25 06:58N 29°56' W 090°21'2 4.5
2017-Nov-25 06:30N 29°57' W 090°23'0 0.0
2017-Nov-25 05:49N 29°57' W 090°23'0 0.0
2017-Nov-25 05:30N 29°57' W 090°23'0 0.0
2017-Nov-25 05:00N 29°57' W 090°23'0 0.0
2017-Nov-25 04:30N 29°57' W 090°23'0 0.2
2017-Nov-25 04:00N 29°57' W 090°23'  

Dump ship's entire track history